.
WxDataArchive / Data Records for 2014-05-10
2014-05-09 May 2014 2014-05-11

Data Records for Saturday, 10 May 2014

Time	Temp	Chill	HIndex	Humid	Dewpt	 Wind 	HiWind	WindDir	Rain 	Barom
-----	----	-----	------	-----	-----	------	------	-------	-----	-----
00:00	61.3	61.3	61.3	77	54.0	1	3	248	0.00	29.813 
00:05	61.3	61.3	61.3	77	54.0	0	3	248	0.00	29.813 
00:10	61.2	61.2	61.2	77	53.9	0	2	248	0.00	29.813 
00:15	61.0	61.0	61.0	77	53.7	0	2	248	0.00	29.819 
00:20	60.9	60.9	60.9	77	53.6	0	2	248	0.00	29.819 
00:25	60.7	60.7	60.7	78	53.8	0	1	248	0.00	29.819 
00:30	60.5	60.5	60.5	78	53.6	0	2	248	0.00	29.822 
00:35	60.4	60.4	60.4	79	53.9	0	2	248	0.00	29.822 
00:40	60.2	60.2	60.2	79	53.7	0	1	248	0.00	29.822 
00:45	60.1	60.1	60.1	80	53.9	0	2	248	0.00	29.830 
00:50	60.1	60.1	60.1	80	53.9	0	2	248	0.00	29.830 
00:55	60.1	60.1	60.1	80	53.9	0	2	248	0.00	29.830 
01:00	60.1	60.1	60.1	80	53.9	0	3	270	0.00	29.839 
01:05	60.1	60.1	60.1	80	53.9	0	2	270	0.00	29.839 
01:10	60.1	60.1	60.1	81	54.2	0	2	270	0.00	29.839 
01:15	59.9	59.9	59.9	81	54.1	0	2	270	0.00	29.840 
01:20	59.9	59.9	59.9	81	54.1	0	2	270	0.00	29.840 
01:25	59.8	59.8	59.8	81	54.0	0	1	270	0.00	29.840 
01:30	59.8	59.8	59.8	81	54.0	0	1	270	0.00	29.846 
01:35	59.8	59.8	59.8	81	54.0	0	2	270	0.00	29.846 
01:40	59.6	59.6	59.6	82	54.1	0	1	270	0.00	29.846 
01:45	59.6	59.6	59.6	82	54.1	0	1	270	0.00	29.852 
01:50	59.5	59.5	59.5	82	54.0	0	1	270	0.00	29.852 
01:55	59.5	59.5	59.5	83	54.3	0	3	270	0.00	29.852 
02:00	59.5	59.5	59.5	83	54.3	0	1	270	0.00	29.856 
02:05	59.5	59.5	59.5	83	54.3	0	1	270	0.00	29.856 
02:10	59.3	59.3	59.3	83	54.1	1	2	270	0.00	29.856 
02:15	59.3	59.3	59.3	84	54.5	1	2	270	0.00	29.855 
02:20	59.2	59.2	59.2	84	54.4	1	3	270	0.00	29.855 
02:25	59.2	59.2	59.2	84	54.4	1	2	270	0.00	29.855 
02:30	59.0	59.0	59.0	84	54.2	0	1	270	0.00	29.856 
02:35	58.7	58.7	58.7	84	53.9	0	1	270	0.00	29.856 
02:40	58.6	58.6	58.6	85	54.1	0	0	---	0.00	29.856 
02:45	58.3	58.3	58.3	85	53.8	0	1	270	0.00	29.856 
02:50	58.1	58.1	58.1	86	53.9	0	1	270	0.00	29.856 
02:55	57.8	57.8	57.8	86	53.6	0	2	270	0.00	29.856 
03:00	57.5	57.5	57.5	84	52.7	0	3	270	0.00	29.859 
03:05	57.3	57.3	57.3	82	51.9	0	3	270	0.00	29.859 
03:10	57.2	57.2	57.2	80	51.1	0	2	270	0.00	29.859 
03:15	56.9	56.9	56.9	78	50.1	0	1	270	0.00	29.867 
03:20	56.9	56.9	56.9	77	49.8	0	1	270	0.00	29.867 
03:25	56.7	56.7	56.7	75	48.9	1	3	270	0.00	29.867 
03:30	56.7	56.7	56.7	73	48.1	1	2	270	0.00	29.873 
03:35	56.6	56.6	56.6	73	48.0	0	2	270	0.00	29.873 
03:40	56.6	56.6	56.6	72	47.7	0	2	270	0.00	29.873 
03:45	56.5	56.5	56.5	72	47.6	0	1	270	0.00	29.874 
03:50	56.2	56.2	56.2	72	47.3	0	1	270	0.00	29.874 
03:55	56.0	56.0	56.0	72	47.1	0	1	270	0.00	29.874 
04:00	55.9	55.9	55.9	72	47.0	0	1	270	0.00	29.875 
04:05	55.7	55.7	55.7	72	46.8	0	1	270	0.00	29.875 
04:10	55.4	55.4	55.4	72	46.5	0	0	---	0.00	29.875 
04:15	55.3	55.3	55.3	72	46.4	0	0	---	0.00	29.874 
04:20	55.1	55.1	55.1	73	46.6	0	0	---	0.00	29.874 
04:25	55.0	55.0	55.0	73	46.5	0	0	---	0.00	29.874 
04:30	54.8	54.8	54.8	74	46.7	0	0	---	0.00	29.874 
04:35	54.5	54.5	54.5	74	46.4	0	1	270	0.00	29.874 
04:40	54.4	54.4	54.4	75	46.6	0	0	---	0.00	29.874 
04:45	54.2	54.2	54.2	75	46.4	0	1	270	0.00	29.885 
04:50	54.1	54.1	54.1	75	46.4	0	0	---	0.00	29.885 
04:55	53.9	53.9	53.9	75	46.2	0	1	270	0.00	29.885 
05:00	53.8	53.8	53.8	75	46.1	0	0	---	0.00	29.884 
05:05	53.8	53.8	53.8	75	46.1	0	0	---	0.00	29.884 
05:10	53.6	53.6	53.6	75	45.9	0	0	---	0.00	29.884 
05:15	53.5	53.5	53.5	75	45.8	0	0	---	0.00	29.887 
05:20	53.3	53.3	53.3	76	45.9	0	0	---	0.00	29.887 
05:25	53.1	53.1	53.1	77	46.1	0	0	---	0.00	29.887 
05:30	52.6	52.6	52.6	77	45.6	0	0	---	0.00	29.892 
05:35	52.3	52.3	52.3	78	45.6	0	0	---	0.00	29.892 
05:40	52.0	52.0	52.0	79	45.7	0	0	---	0.00	29.892 
05:45	51.7	51.7	51.7	79	45.4	0	0	---	0.00	29.893 
05:50	51.6	51.6	51.6	80	45.6	0	0	---	0.00	29.893 
05:55	51.3	51.3	51.3	81	45.7	0	0	---	0.00	29.893 
06:00	51.1	51.1	51.1	81	45.5	0	0	---	0.00	29.897 
06:05	51.0	51.0	51.0	82	45.7	0	0	---	0.00	29.897 
06:10	50.8	50.8	50.8	83	45.8	0	0	---	0.00	29.897 
06:15	50.7	50.7	50.7	83	45.7	0	0	---	0.00	29.918 
06:20	50.5	50.5	50.5	84	45.8	0	0	---	0.00	29.918 
06:25	50.4	50.4	50.4	84	45.7	0	0	---	0.00	29.918 
06:30	50.2	50.2	50.2	84	45.6	0	0	---	0.00	29.923 
06:35	49.9	49.9	49.9	84	45.3	0	0	---	0.00	29.923 
06:40	49.8	49.8	49.8	85	45.5	0	0	---	0.00	29.923 
06:45	49.8	49.8	49.8	85	45.5	0	0	---	0.00	29.931 
06:50	49.6	49.6	49.6	86	45.6	0	0	---	0.00	29.931 
06:55	49.6	49.6	49.6	86	45.6	0	0	---	0.00	29.931 
07:00	49.6	49.6	49.6	87	45.9	0	0	---	0.00	29.933 
07:05	49.6	49.6	49.6	87	45.9	0	0	---	0.00	29.933 
07:10	49.6	49.6	49.6	87	45.9	0	0	---	0.00	29.933 
07:15	49.6	49.6	49.6	88	46.2	0	0	---	0.00	29.935 
07:20	49.6	49.6	49.6	88	46.2	0	0	---	0.00	29.935 
07:25	49.8	49.8	49.8	88	46.4	0	0	---	0.00	29.935 
07:30	49.8	49.8	49.8	88	46.4	0	0	---	0.00	29.943 
07:35	49.9	49.9	49.9	88	46.5	0	0	---	0.00	29.943 
07:40	50.1	50.1	50.1	88	46.7	0	0	---	0.00	29.943 
07:45	50.1	50.1	50.1	88	46.7	0	0	---	0.00	29.947 
07:50	50.4	50.4	50.4	89	47.3	0	0	---	0.00	29.947 
07:55	50.5	50.5	50.5	89	47.4	0	0	---	0.00	29.947 
08:00	50.8	50.8	50.8	89	47.7	0	0	---	0.00	29.945 
08:05	51.1	51.1	51.1	88	47.7	0	0	---	0.00	29.945 
08:10	51.4	51.4	51.4	88	48.0	0	0	---	0.00	29.945 
08:15	51.6	51.6	51.6	88	48.2	0	0	---	0.00	29.945 
08:20	51.7	51.7	51.7	88	48.3	0	0	---	0.00	29.945 
08:25	52.0	52.0	52.0	88	48.6	0	0	---	0.00	29.945 
08:30	52.2	52.2	52.2	87	48.4	0	0	---	0.00	29.945 
08:35	52.6	52.6	52.6	87	48.8	0	0	---	0.00	29.945 
08:40	53.9	53.9	53.9	85	49.5	0	0	---	0.00	29.945 
08:45	55.4	55.4	55.4	80	49.3	0	0	---	0.00	29.945 
08:50	56.6	56.6	56.6	76	49.1	0	1	270	0.00	29.945 
08:55	57.6	57.6	57.6	73	49.0	0	1	270	0.00	29.945 
09:00	58.6	58.6	58.6	68	48.1	0	1	270	0.00	29.943 
09:05	59.5	59.5	59.5	65	47.7	0	1	270	0.00	29.943 
09:10	60.2	60.2	60.2	64	48.0	0	1	270	0.00	29.943 
09:15	60.9	60.9	60.9	60	46.9	0	3	270	0.00	29.950 
09:20	61.5	61.5	61.5	60	47.5	0	2	270	0.00	29.950 
09:25	62.3	62.3	62.3	57	46.9	0	1	270	0.00	29.950 
09:30	62.6	62.6	62.6	55	46.2	0	2	270	0.00	29.951 
09:35	62.7	62.7	62.7	56	46.8	0	2	270	0.00	29.951 
09:40	62.4	62.4	62.4	53	45.0	0	2	270	0.00	29.951 
09:45	62.3	62.3	62.3	54	45.4	0	1	270	0.00	29.953 
09:50	62.4	62.4	62.4	57	47.0	0	1	270	0.00	29.953 
09:55	63.1	63.1	63.1	56	47.1	0	1	270	0.00	29.953 
10:00	63.7	63.7	63.7	54	46.7	0	2	270	0.00	29.948 
10:05	64.3	64.3	64.3	52	46.3	0	1	270	0.00	29.948 
10:10	63.7	63.7	63.7	50	44.7	0	2	270	0.00	29.948 
10:15	63.2	63.2	63.2	51	44.8	0	1	270	0.00	29.946 
10:20	62.9	62.9	62.9	52	45.0	0	1	270	0.00	29.946 
10:25	63.1	63.1	63.1	53	45.7	0	1	270	0.00	29.946 
10:30	63.1	63.1	63.1	53	45.7	0	1	270	0.00	29.947 
10:35	63.2	63.2	63.2	47	42.6	0	1	270	0.00	29.947 
10:40	63.4	63.4	63.4	52	45.5	0	2	270	0.00	29.947 
10:45	64.3	64.3	64.3	52	46.3	0	1	270	0.00	29.943 
10:50	65.2	65.2	65.2	49	45.6	0	1	270	0.00	29.943 
10:55	65.6	65.6	65.6	50	46.5	0	1	270	0.00	29.943 
11:00	66.0	66.0	66.0	44	43.5	0	1	270	0.00	29.938 
11:05	65.6	65.6	65.6	42	41.9	1	3	270	0.00	29.938 
11:10	66.0	66.0	66.0	46	44.6	0	1	270	0.00	29.938 
11:15	65.8	65.8	65.8	43	42.7	0	2	270	0.00	29.942 
11:20	66.0	66.0	66.0	45	44.0	0	2	270	0.00	29.942 
11:25	66.6	66.6	66.6	44	44.0	0	1	270	0.00	29.942 
11:30	67.1	67.1	67.1	41	42.6	0	3	270	0.00	29.947 
11:35	67.1	67.1	67.1	38	40.6	0	2	270	0.00	29.947 
11:40	66.8	66.8	66.8	39	41.0	1	4	270	0.00	29.947 
11:45	66.8	66.8	66.8	41	42.3	1	4	270	0.00	29.945 
11:50	66.8	66.8	66.8	37	39.7	1	4	292	0.00	29.945 
11:55	66.8	66.8	66.8	38	40.4	1	3	270	0.00	29.945 
12:00	67.3	67.3	67.3	39	41.5	0	2	270	0.00	29.942 
12:05	67.4	67.4	67.4	39	41.6	1	3	270	0.00	29.942 
12:10	67.8	67.8	67.8	39	41.9	0	2	270	0.00	29.942 
12:15	68.4	68.4	68.4	40	43.1	0	2	270	0.00	29.939 
12:20	68.4	68.4	68.4	37	41.1	1	3	270	0.00	29.939 
12:25	68.3	68.3	68.3	30	35.7	1	3	270	0.00	29.939 
12:30	68.3	68.3	68.3	31	36.5	1	3	292	0.00	29.936 
12:35	68.8	68.8	68.8	33	38.5	0	3	292	0.00	29.936 
12:40	68.8	68.8	68.8	35	40.0	1	4	292	0.00	29.936 
12:45	68.8	68.8	68.8	35	40.0	0	3	292	0.00	29.934 
12:50	69.6	69.6	69.6	34	40.0	0	2	292	0.00	29.934 
12:55	69.8	69.8	69.8	34	40.2	1	3	292	0.00	29.934 
13:00	70.1	70.1	70.1	33	39.7	1	3	292	0.00	29.930 
13:05	69.9	69.9	69.9	33	39.5	1	3	292	0.00	29.930 
13:10	69.9	69.9	69.9	33	39.5	1	5	315	0.00	29.930 
13:15	70.3	70.3	70.3	37	42.8	0	2	315	0.00	29.923 
13:20	70.6	70.6	70.6	34	40.9	0	2	315	0.00	29.923 
13:25	70.9	70.9	70.9	33	40.3	1	3	315	0.00	29.923 
13:30	70.9	70.9	70.9	32	39.6	1	3	315	0.00	29.918 
13:35	71.1	71.1	71.1	36	42.8	1	2	315	0.00	29.918 
13:40	71.1	71.1	71.1	33	40.5	1	3	315	0.00	29.918 
13:45	71.1	71.1	71.1	33	40.5	1	2	315	0.00	29.913 
13:50	70.9	70.9	70.9	31	38.7	1	4	315	0.00	29.913 
13:55	70.9	70.9	70.9	31	38.7	2	5	315	0.00	29.913 
14:00	71.3	71.3	71.3	38	44.4	1	3	315	0.00	29.908 
14:05	71.5	71.5	71.5	31	39.3	1	3	68	0.00	29.908 
14:10	71.5	71.5	71.5	31	39.3	1	4	292	0.00	29.908 
14:15	71.5	71.5	71.5	27	35.8	1	4	292	0.00	29.907 
14:20	71.5	71.5	71.5	30	38.4	2	4	270	0.00	29.907 
14:25	71.5	71.5	71.5	28	36.7	2	7	270	0.00	29.907 
14:30	71.3	71.3	71.3	29	37.4	2	5	338	0.00	29.904 
14:35	71.6	71.6	71.6	33	41.0	1	3	338	0.00	29.904 
14:40	71.8	71.8	71.8	27	36.0	2	6	270	0.00	29.904 
14:45	71.6	71.6	71.6	28	36.8	3	6	0	0.00	29.902 
14:50	71.6	71.6	71.6	28	36.8	2	5	338	0.00	29.902 
14:55	72.0	72.0	72.0	32	40.5	1	3	292	0.00	29.902 
15:00	72.5	72.5	72.5	28	37.5	1	3	292	0.00	29.900 
15:05	72.7	72.7	72.7	29	38.6	2	5	338	0.00	29.900 
15:10	72.7	72.7	72.7	27	36.8	3	5	338	0.00	29.900 
15:15	72.5	72.5	72.5	27	36.6	3	5	338	0.00	29.903 
15:20	72.5	72.5	72.5	31	40.1	1	4	315	0.00	29.903 
15:25	72.8	72.8	72.8	27	36.9	3	6	292	0.00	29.903 
15:30	72.7	72.7	72.7	30	39.5	2	5	315	0.00	29.903 
15:35	73.0	73.0	73.0	27	37.0	3	6	270	0.00	29.903 
15:40	72.8	72.8	72.8	27	36.9	0	2	270	0.00	29.903 
15:45	73.3	73.3	73.3	31	40.8	0	3	270	0.00	29.903 
15:50	73.9	73.9	73.9	26	36.8	1	5	270	0.00	29.903 
15:55	74.0	74.0	74.0	25	35.9	1	3	270	0.00	29.903 
16:00	73.9	73.9	73.9	26	36.8	2	7	338	0.00	29.895 
16:05	73.7	73.7	73.7	28	38.6	1	4	338	0.00	29.895 
16:10	73.9	73.9	73.9	27	37.8	3	5	270	0.00	29.895 
16:15	73.7	73.7	73.7	26	36.7	1	4	315	0.00	29.898 
16:20	73.5	73.5	73.5	28	38.4	1	4	338	0.00	29.898 
16:25	73.3	73.3	73.3	24	34.3	1	2	315	0.00	29.898 
16:30	73.2	73.2	73.2	26	36.2	1	4	315	0.00	29.893 
16:35	73.7	73.7	73.7	25	35.7	1	3	90	0.00	29.893 
16:40	73.7	73.7	73.7	26	36.7	3	5	270	0.00	29.893 
16:45	73.7	73.7	73.7	26	36.7	2	5	315	0.00	29.894 
16:50	73.7	73.7	73.7	25	35.7	2	6	315	0.00	29.894 
16:55	73.9	73.9	73.9	26	36.8	1	3	292	0.00	29.894 
17:00	74.0	74.0	74.0	26	36.9	2	5	292	0.00	29.893 
17:05	73.9	73.9	73.9	27	37.8	3	6	270	0.00	29.893 
17:10	73.5	73.5	73.5	27	37.5	2	4	315	0.00	29.893 
17:15	73.9	73.9	73.9	28	38.7	2	5	292	0.00	29.899 
17:20	73.9	73.9	73.9	27	37.8	2	5	292	0.00	29.899 
17:25	74.0	74.0	74.0	27	37.9	1	3	338	0.00	29.899 
17:30	73.5	73.5	73.5	27	37.5	3	5	270	0.00	29.904 
17:35	73.0	73.0	73.0	27	37.0	2	5	270	0.00	29.904 
17:40	73.3	73.3	73.3	27	37.3	1	3	270	0.00	29.904 
17:45	73.2	73.2	73.2	27	37.2	3	9	338	0.00	29.904 
17:50	73.3	73.3	73.3	26	36.3	1	4	315	0.00	29.904 
17:55	73.9	73.9	73.9	27	37.8	1	3	315	0.00	29.904 
18:00	73.5	73.5	73.5	25	35.5	2	6	315	0.00	29.906 
18:05	73.3	73.3	73.3	25	35.3	1	3	338	0.00	29.906 
18:10	73.3	73.3	73.3	25	35.3	2	5	338	0.00	29.906 
18:15	73.3	73.3	73.3	26	36.3	2	4	292	0.00	29.908 
18:20	73.0	73.0	73.0	26	36.1	1	3	270	0.00	29.908 
18:25	72.8	72.8	72.8	26	35.9	2	4	270	0.00	29.908 
18:30	72.7	72.7	72.7	25	34.8	2	4	270	0.00	29.910 
18:35	72.3	72.3	72.3	27	36.4	1	4	292	0.00	29.910 
18:40	72.3	72.3	72.3	27	36.4	2	4	292	0.00	29.910 
18:45	72.3	72.3	72.3	27	36.4	1	4	292	0.00	29.910 
18:50	72.1	72.1	72.1	26	35.3	1	4	315	0.00	29.910 
18:55	72.1	72.1	72.1	27	36.3	2	6	292	0.00	29.910 
19:00	72.0	72.0	72.0	27	36.2	1	5	315	0.00	29.909 
19:05	72.0	72.0	72.0	26	35.2	1	6	338	0.00	29.909 
19:10	71.8	71.8	71.8	27	36.0	1	3	338	0.00	29.909 
19:15	71.8	71.8	71.8	26	35.1	2	4	270	0.00	29.909 
19:20	71.5	71.5	71.5	27	35.8	1	3	292	0.00	29.909 
19:25	71.5	71.5	71.5	28	36.7	1	3	338	0.00	29.909 
19:30	71.1	71.1	71.1	27	35.4	2	5	292	0.00	29.911 
19:35	70.9	70.9	70.9	27	35.2	1	3	292	0.00	29.911 
19:40	70.8	70.8	70.8	27	35.2	2	4	315	0.00	29.911 
19:45	70.8	70.8	70.8	27	35.2	1	4	292	0.00	29.914 
19:50	70.6	70.6	70.6	27	35.0	1	3	270	0.00	29.914 
19:55	70.3	70.3	70.3	27	34.7	1	3	270	0.00	29.914 
20:00	70.1	70.1	70.1	28	35.5	1	3	292	0.00	29.920 
20:05	69.9	69.9	69.9	28	35.3	1	2	292	0.00	29.920 
20:10	69.8	69.8	69.8	28	35.2	0	1	292	0.00	29.920 
20:15	69.6	69.6	69.6	28	35.0	0	1	292	0.00	29.922 
20:20	69.4	69.4	69.4	27	34.0	0	2	292	0.00	29.922 
20:25	69.1	69.1	69.1	28	34.6	0	1	292	0.00	29.922 
20:30	68.9	68.9	68.9	29	35.3	0	0	---	0.00	29.928 
20:35	68.4	68.4	68.4	29	34.9	0	1	292	0.00	29.928 
20:40	68.1	68.1	68.1	30	35.5	0	0	---	0.00	29.928 
20:45	67.6	67.6	67.6	30	35.1	0	0	---	0.00	29.932 
20:50	67.1	67.1	67.1	31	35.4	0	0	---	0.00	29.932 
20:55	66.6	66.6	66.6	33	36.6	0	0	---	0.00	29.932 
21:00	65.8	65.8	65.8	34	36.6	0	0	---	0.00	29.933 
21:05	65.3	65.3	65.3	37	38.4	0	0	---	0.00	29.933 
21:10	64.7	64.7	64.7	37	37.8	0	0	---	0.00	29.933 
21:15	63.9	63.9	63.9	40	39.1	0	0	---	0.00	29.930 
21:20	63.2	63.2	63.2	40	38.5	0	0	---	0.00	29.930 
21:25	62.6	62.6	62.6	42	39.2	0	0	---	0.00	29.930 
21:30	62.0	62.0	62.0	42	38.6	0	0	---	0.00	29.935 
21:35	61.3	61.3	61.3	44	39.2	0	0	---	0.00	29.935 
21:40	60.9	60.9	60.9	45	39.4	0	0	---	0.00	29.935 
21:45	60.4	60.4	60.4	46	39.5	0	0	---	0.00	29.940 
21:50	59.9	59.9	59.9	47	39.6	0	0	---	0.00	29.940 
21:55	59.3	59.3	59.3	48	39.6	0	0	---	0.00	29.940 
22:00	58.9	58.9	58.9	48	39.2	0	0	---	0.00	29.947 
22:05	58.6	58.6	58.6	50	40.0	0	0	---	0.00	29.947 
22:10	58.1	58.1	58.1	50	39.6	0	0	---	0.00	29.947 
22:15	57.8	57.8	57.8	50	39.3	0	0	---	0.00	29.955 
22:20	57.3	57.3	57.3	52	39.8	0	0	---	0.00	29.955 
22:25	57.0	57.0	57.0	54	40.5	0	0	---	0.00	29.955 
22:30	56.6	56.6	56.6	55	40.6	0	0	---	0.00	29.968 
22:35	56.0	56.0	56.0	56	40.5	0	0	---	0.00	29.968 
22:40	55.6	55.6	55.6	58	41.1	0	0	---	0.00	29.968 
22:45	55.3	55.3	55.3	60	41.7	0	0	---	0.00	29.974 
22:50	55.0	55.0	55.0	62	42.2	0	0	---	0.00	29.974 
22:55	54.8	54.8	54.8	61	41.6	0	0	---	0.00	29.974 
23:00	54.5	54.5	54.5	60	40.9	0	0	---	0.00	29.977 
23:05	54.1	54.1	54.1	60	40.5	0	0	---	0.00	29.977 
23:10	53.9	53.9	53.9	61	40.8	0	0	---	0.00	29.977 
23:15	53.6	53.6	53.6	61	40.5	0	0	---	0.00	29.977 
23:20	53.5	53.5	53.5	62	40.8	0	0	---	0.00	29.977 
23:25	53.2	53.2	53.2	63	40.9	0	0	---	0.00	29.977 
23:30	53.1	53.1	53.1	64	41.2	0	0	---	0.00	29.970 
23:35	52.9	52.9	52.9	64	41.1	0	0	---	0.00	29.970 
23:40	52.8	52.8	52.8	66	41.8	0	1	292	0.00	29.970 
23:45	52.5	52.5	52.5	66	41.5	0	0	---	0.00	29.970 
23:50	52.3	52.3	52.3	67	41.7	0	0	---	0.00	29.970 
23:55	52.0	52.0	52.0	68	41.8	0	0	---	0.00	29.970 

CoCoRaHS
IN-AL-39
A2 Web Hosting
Creative Commons License
GoDaddy
search engine by freefind advanced

loaded 2018-11-18 11:23:57 • last modified 2010-11-18 10:43:29
Privacy PolicyDisclaimer
• wx.awcolley.com is powered by PmWiki v.2002016 •
• all content (unless otherwise noted) © 2018 A W Colley